Time;durP1;ratioP1;P1;durP2;ratioP2;P2;SDS_P1;SDS_P2;PMS_P1;PMS_P2;Temp;Humidity;BMP_temperature;BMP_pressure;BME280_temperature;BME280_humidity;BME280_pressure;Samples;Min_cycle;Max_cycle;Signal;HPM_P1;HPM_P2
2023/05/07 00:00:10;;;;;;;11.50;2.83;;;;;;;15.44;52.47;100887.38;5072904;28;20669;-82
2023/05/07 00:02:37;;;;;;;15.73;3.00;;;;;;;15.31;53.20;100882.31;5071891;28;20529;-82
2023/05/07 00:05:03;;;;;;;14.02;3.08;;;;;;;15.27;53.62;100879.03;5072380;28;20021;-80
2023/05/07 00:07:29;;;;;;;8.65;2.58;;;;;;;15.18;53.86;100879.94;5072333;28;20063;-79
2023/05/07 00:09:54;;;;;;;10.80;2.53;;;;;;;15.27;53.77;100908.84;5072431;28;20052;-84
2023/05/07 00:12:19;;;;;;;7.40;2.58;;;;;;;15.18;54.21;100889.91;5072598;28;20030;-80
2023/05/07 00:14:45;;;;;;;6.75;3.08;;;;;;;15.20;54.32;100896.88;5072623;28;20029;-80
2023/05/07 00:17:10;;;;;;;7.30;2.92;;;;;;;15.10;54.55;100889.81;5074643;28;20567;-80
2023/05/07 00:19:36;;;;;;;15.45;3.00;;;;;;;15.16;54.75;100917.16;5077522;28;20031;-79
2023/05/07 00:22:01;;;;;;;10.10;2.70;;;;;;;15.08;55.18;100898.06;5092338;28;20472;-81
2023/05/07 00:24:27;;;;;;;11.50;3.10;;;;;;;15.03;55.41;100885.97;5092746;28;20020;-79
2023/05/07 00:26:52;;;;;;;9.23;2.30;;;;;;;15.02;55.83;100903.19;5092091;28;20032;-80
2023/05/07 00:29:18;;;;;;;8.93;2.60;;;;;;;14.95;56.07;100892.09;5071441;28;20029;-82
2023/05/07 00:31:43;;;;;;;8.07;2.92;;;;;;;14.76;56.51;100875.91;5071782;28;20032;-80
2023/05/07 00:34:09;;;;;;;12.80;3.00;;;;;;;14.81;56.25;100879.03;5072756;28;20025;-80
2023/05/07 00:36:34;;;;;;;13.85;3.28;;;;;;;14.86;56.50;100903.81;5072287;28;20089;-82
2023/05/07 00:39:02;;;;;;;6.72;2.75;;;;;;;14.85;56.92;100902.13;5072469;28;20059;-80
2023/05/07 00:41:27;;;;;;;6.65;2.42;;;;;;;14.86;57.00;100911.09;5072250;28;20033;-81
2023/05/07 00:43:53;;;;;;;8.15;2.53;;;;;;;14.78;57.05;100905.53;5072511;28;20017;-80
2023/05/07 00:46:20;;;;;;;13.43;3.03;;;;;;;14.75;57.11;100898.56;5073289;28;20440;-79
2023/05/07 00:48:46;;;;;;;17.48;3.67;;;;;;;14.65;57.21;100884.19;5073166;28;20036;-80
2023/05/07 00:51:12;;;;;;;14.32;2.83;;;;;;;14.75;57.34;100914.81;5076976;28;20028;-79
2023/05/07 00:53:38;;;;;;;15.57;2.95;;;;;;;14.77;57.08;100904.69;5075710;28;20063;-81
2023/05/07 00:56:04;;;;;;;10.77;2.20;;;;;;;14.68;57.43;100913.66;5071348;28;20029;-82
2023/05/07 00:58:30;;;;;;;8.35;2.72;;;;;;;14.69;57.63;100913.53;5070993;28;20036;-81
2023/05/07 01:00:55;;;;;;;9.43;3.70;;;;;;;14.63;57.62;100914.13;5071229;28;20747;-79
2023/05/07 01:03:21;;;;;;;16.70;3.83;;;;;;;14.57;57.77;100909.28;5070945;28;20085;-81
2023/05/07 01:05:49;;;;;;;20.55;3.80;;;;;;;14.60;57.66;100913.53;5071269;28;20032;-80
2023/05/07 01:08:16;;;;;;;12.45;4.03;;;;;;;14.54;57.64;100917.69;5071101;28;20024;-80
2023/05/07 01:10:42;;;;;;;10.27;3.05;;;;;;;14.51;57.80;100919.81;5071186;28;20037;-82
2023/05/07 01:13:12;;;;;;;17.85;3.17;;;;;;;14.49;57.66;100927.25;5070601;28;20028;-82
2023/05/07 01:15:40;;;;;;;10.48;3.13;;;;;;;14.41;57.85;100914.41;5069950;28;20060;-80
2023/05/07 01:18:06;;;;;;;16.50;2.90;;;;;;;14.40;57.49;100906.44;5072583;28;20521;-78
2023/05/07 01:20:32;;;;;;;14.63;3.10;;;;;;;14.43;57.70;100917.81;5071186;28;20035;-80
2023/05/07 01:23:00;;;;;;;12.23;3.45;;;;;;;14.29;57.60;100899.28;5072282;28;20033;-82
2023/05/07 01:25:25;;;;;;;16.05;3.53;;;;;;;14.40;57.75;100917.28;5072653;28;20024;-79
2023/05/07 01:27:51;;;;;;;8.77;3.10;;;;;;;14.19;57.39;100872.22;5072283;28;20111;-79
2023/05/07 01:30:18;;;;;;;12.77;2.97;;;;;;;14.37;57.49;100902.16;5072408;28;20382;-79
2023/05/07 01:32:48;;;;;;;9.68;3.45;;;;;;;14.41;57.25;100913.53;5072172;28;20395;-79
2023/05/07 01:35:18;;;;;;;10.55;3.35;;;;;;;14.45;57.17;100920.38;5070793;28;20056;-79
2023/05/07 01:37:45;;;;;;;8.73;3.17;;;;;;;14.22;57.16;100889.19;5070970;28;20087;-80
2023/05/07 01:40:11;;;;;;;11.48;4.40;;;;;;;14.43;57.13;100922.41;5071968;28;20021;-79
2023/05/07 01:42:37;;;;;;;11.73;3.17;;;;;;;14.40;57.20;100917.28;5071790;28;20024;-80
2023/05/07 01:45:03;;;;;;;12.23;3.33;;;;;;;14.43;56.85;100915.09;5071243;28;20036;-80
2023/05/07 01:47:30;;;;;;;24.70;4.03;;;;;;;14.37;57.06;100906.72;5076696;28;20024;-82
2023/05/07 01:49:55;;;;;;;11.48;3.45;;;;;;;14.31;56.95;100907.25;5074458;28;20427;-81
2023/05/07 01:52:21;;;;;;;9.25;2.65;;;;;;;14.34;56.76;100907.84;5073950;28;20036;-80
2023/05/07 01:54:46;;;;;;;12.25;3.50;;;;;;;14.39;57.06;100916.41;5070414;28;20016;-80
2023/05/07 01:57:12;;;;;;;9.40;2.95;;;;;;;14.31;56.86;100891.03;5070443;28;20107;-81
2023/05/07 01:59:37;;;;;;;16.15;3.58;;;;;;;14.30;56.81;100902.84;5069874;28;20396;-80
2023/05/07 02:02:03;;;;;;;9.88;2.95;;;;;;;14.34;57.42;100899.72;5070264;28;20028;-81
2023/05/07 02:04:28;;;;;;;6.00;2.58;;;;;;;14.34;56.96;100896.19;5069764;28;20020;-82
2023/05/07 02:06:53;;;;;;;15.13;3.30;;;;;;;14.25;57.26;100886.19;5069921;28;20029;-81
2023/05/07 02:09:19;;;;;;;12.40;4.28;;;;;;;14.27;57.35;100887.75;5070346;28;20020;-80
2023/05/07 02:11:45;;;;;;;9.63;3.35;;;;;;;14.23;57.10;100866.53;5070261;28;20029;-80
2023/05/07 02:14:10;;;;;;;11.63;3.20;;;;;;;14.34;57.05;100898.91;5069397;28;20017;-83
2023/05/07 02:16:36;;;;;;;22.15;4.13;;;;;;;14.18;56.84;100875.94;5069634;28;20036;-82
2023/05/07 02:19:02;;;;;;;12.48;2.95;;;;;;;14.26;57.00;100883.31;5069513;28;20016;-80
2023/05/07 02:21:27;;;;;;;11.43;2.42;;;;;;;14.22;56.93;100875.66;5069850;28;20479;-82
2023/05/07 02:23:52;;;;;;;7.53;2.65;;;;;;;14.18;56.90;100878.63;5069324;28;20017;-82
2023/05/07 02:26:18;;;;;;;17.35;4.05;;;;;;;14.24;56.71;100889.88;5069987;28;20464;-82
2023/05/07 02:28:44;;;;;;;14.52;2.65;;;;;;;14.17;56.98;100879.63;5070079;28;20482;-81
2023/05/07 02:31:09;;;;;;;15.25;2.67;;;;;;;14.06;56.96;100874.38;5070382;28;20029;-80
2023/05/07 02:33:36;;;;;;;14.93;3.55;;;;;;;14.08;57.05;100869.66;5070183;28;20043;-81
2023/05/07 02:36:12;;;;;;;6.78;3.30;;;;;;;14.15;57.47;100881.63;5070639;28;20499;-80
2023/05/07 02:38:38;;;;;;;11.75;2.80;;;;;;;14.13;57.47;100878.19;5071232;28;20045;-79
2023/05/07 02:41:03;;;;;;;13.48;3.08;;;;;;;14.12;57.53;100881.91;5070509;28;20025;-79
2023/05/07 02:43:29;;;;;;;10.52;3.00;;;;;;;14.09;57.88;100887.59;5071212;28;20043;-81
2023/05/07 02:46:02;;;;;;;15.30;3.58;;;;;;;14.06;57.62;100882.47;5080340;28;20017;-86
2023/05/07 02:48:28;;;;;;;14.10;2.88;;;;;;;14.03;57.68;100871.09;5080426;28;20085;-80
2023/05/07 02:50:53;;;;;;;16.02;4.07;;;;;;;14.04;57.39;100884.44;5069148;28;20025;-80
2023/05/07 02:53:19;;;;;;;9.18;2.67;;;;;;;13.99;57.48;100875.91;5069262;28;20029;-79
2023/05/07 02:55:44;;;;;;;14.52;2.92;;;;;;;13.97;57.26;100883.31;5069236;28;20032;-82
2023/05/07 02:58:10;;;;;;;8.68;3.20;;;;;;;13.96;57.20;100887.00;5069245;28;20039;-82
2023/05/07 03:00:35;;;;;;;17.70;3.83;;;;;;;13.97;57.07;100882.47;5067593;28;20092;-80
2023/05/07 03:03:01;;;;;;;9.25;2.88;;;;;;;13.93;57.08;100892.69;5068986;28;20077;-81
2023/05/07 03:05:26;;;;;;;10.00;2.83;;;;;;;13.99;57.04;100875.91;5068733;28;20078;-79
2023/05/07 03:07:51;;;;;;;9.63;3.20;;;;;;;14.07;56.70;100884.16;5068725;28;20028;-79
2023/05/07 03:10:18;;;;;;;9.40;2.70;;;;;;;13.99;56.66;100865.09;5069343;28;20039;-80
2023/05/07 03:12:43;;;;;;;8.70;3.40;;;;;;;14.00;56.77;100891.16;5069295;28;20044;-80
2023/05/07 03:15:10;;;;;;;18.92;4.03;;;;;;;14.00;56.61;100877.63;5069186;28;20023;-78
2023/05/07 03:17:35;;;;;;;11.65;3.42;;;;;;;13.99;56.51;100885.88;5068564;28;20036;-81
2023/05/07 03:20:01;;;;;;;15.27;4.07;;;;;;;13.96;56.32;100891.56;5069092;28;20029;-81
2023/05/07 03:22:27;;;;;;;7.35;3.55;;;;;;;14.01;56.61;100895.53;5068960;28;20377;-79
2023/05/07 03:24:52;;;;;;;16.75;3.67;;;;;;;13.98;56.80;100887.72;5069265;28;20032;-79
2023/05/07 03:27:17;;;;;;;14.10;3.25;;;;;;;14.02;56.66;100901.81;5070557;28;20060;-82
2023/05/07 03:29:43;;;;;;;8.95;3.08;;;;;;;14.04;56.55;100899.81;5072316;28;20420;-78
2023/05/07 03:32:08;;;;;;;9.68;3.10;;;;;;;13.98;56.48;100894.97;5072505;28;20036;-79
2023/05/07 03:34:34;;;;;;;10.15;3.13;;;;;;;14.09;56.31;100905.69;5072756;28;20027;-79
2023/05/07 03:37:00;;;;;;;10.68;3.50;;;;;;;14.08;56.14;100901.25;5072649;28;20049;-80
2023/05/07 03:39:25;;;;;;;10.75;2.80;;;;;;;14.09;56.35;100909.25;5072940;28;20036;-81
2023/05/07 03:41:51;;;;;;;17.75;3.20;;;;;;;14.13;56.47;100907.94;5075425;28;20075;-82
2023/05/07 03:44:16;;;;;;;10.95;2.88;;;;;;;14.17;56.13;100905.81;5076821;28;20025;-82
2023/05/07 03:46:41;;;;;;;10.65;2.92;;;;;;;14.21;56.50;100911.81;5074378;28;20024;-80
2023/05/07 03:49:07;;;;;;;15.20;2.90;;;;;;;14.14;56.64;100901.56;5071960;28;20036;-81
2023/05/07 03:51:33;;;;;;;17.52;4.30;;;;;;;14.26;56.57;100925.75;5071929;28;20028;-79
2023/05/07 03:53:58;;;;;;;9.18;4.18;;;;;;;14.21;56.56;100914.50;5072216;28;20039;-78
2023/05/07 03:56:26;;;;;;;10.00;3.22;;;;;;;14.31;56.58;100928.91;5071941;28;20025;-79
2023/05/07 03:58:52;;;;;;;9.52;3.22;;;;;;;14.32;56.48;100930.59;5071739;28;20384;-79
2023/05/07 04:01:17;;;;;;;16.27;3.85;;;;;;;14.39;56.26;100929.06;5072294;28;20054;-81
2023/05/07 04:03:43;;;;;;;16.13;3.55;;;;;;;14.49;55.74;100936.22;5072601;28;20042;-80
2023/05/07 04:06:08;;;;;;;15.68;3.30;;;;;;;14.51;55.74;100936.06;5072120;28;20078;-80
2023/05/07 04:08:34;;;;;;;11.52;3.85;;;;;;;14.46;56.15;100927.53;5072039;28;20031;-81
2023/05/07 04:10:59;;;;;;;12.73;2.85;;;;;;;14.55;55.61;100932.09;5071577;28;20036;-81
2023/05/07 04:13:25;;;;;;;12.18;3.70;;;;;;;14.57;55.80;100949.03;5071513;28;20025;-79
2023/05/07 04:15:51;;;;;;;20.05;3.40;;;;;;;14.57;55.42;100936.34;5071459;28;20039;-81
2023/05/07 04:18:17;;;;;;;27.70;4.05;;;;;;;14.78;55.14;100955.13;5071210;28;20066;-79
2023/05/07 04:20:42;;;;;;;18.60;4.75;;;;;;;14.84;54.86;100948.28;5071824;28;20121;-80
2023/05/07 04:23:08;;;;;;;8.52;3.55;;;;;;;14.89;54.20;100954.97;5071333;28;20028;-79
2023/05/07 04:25:34;;;;;;;8.63;3.33;;;;;;;14.90;53.75;100947.72;5071354;28;20033;-81
2023/05/07 04:27:59;;;;;;;17.13;4.45;;;;;;;14.87;53.81;100932.59;5071150;28;20024;-79
2023/05/07 04:30:25;;;;;;;13.77;4.05;;;;;;;14.88;53.54;100922.63;5077315;28;20529;-80
2023/05/07 04:32:50;;;;;;;15.48;4.50;;;;;;;15.07;53.62;100949.69;5072114;28;20044;-81
2023/05/07 04:35:16;;;;;;;20.45;3.83;;;;;;;15.05;53.46;100933.56;5072331;28;20043;-79
2023/05/07 04:37:42;;;;;;;15.75;3.47;;;;;;;15.27;53.09;100957.63;5070996;28;20084;-79
2023/05/07 04:40:07;;;;;;;17.95;4.20;;;;;;;15.34;52.80;100959.75;5076608;28;20028;-80
2023/05/07 04:42:33;;;;;;;7.88;3.22;;;;;;;15.40;52.76;100967.28;5076221;28;20029;-79
2023/05/07 04:44:58;;;;;;;10.57;3.03;;;;;;;15.42;52.70;100962.56;5072535;28;20502;-79
2023/05/07 04:47:24;;;;;;;8.80;2.70;;;;;;;15.49;52.71;100971.84;5071303;28;20033;-80
2023/05/07 04:49:49;;;;;;;14.10;4.05;;;;;;;15.57;52.17;100971.97;5071039;28;20024;-79
2023/05/07 04:52:15;;;;;;;9.10;3.03;;;;;;;15.65;52.38;100974.78;5071278;28;20032;-79
2023/05/07 04:54:41;;;;;;;16.33;3.95;;;;;;;15.67;51.89;100970.06;5071493;28;20105;-81
2023/05/07 04:57:06;;;;;;;13.68;3.60;;;;;;;15.76;51.85;100980.03;5071029;28;20051;-83
2023/05/07 04:59:32;;;;;;;15.43;3.20;;;;;;;15.82;51.71;100965.00;5071098;28;20052;-79
2023/05/07 05:01:58;;;;;;;23.08;5.18;;;;;;;15.87;51.44;100971.69;5071044;28;20343;-80
2023/05/07 05:04:23;;;;;;;15.75;3.30;;;;;;;15.98;51.77;100984.19;5070868;28;20031;-80
2023/05/07 05:06:49;;;;;;;14.27;3.97;;;;;;;16.04;51.17;100968.19;5071264;28;20032;-82
2023/05/07 05:09:15;;;;;;;12.68;3.35;;;;;;;16.09;51.67;100982.13;5070836;28;20086;-80
2023/05/07 05:11:41;;;;;;;29.05;5.00;;;;;;;16.14;51.41;100962.69;5070892;28;20035;-80
2023/05/07 05:14:06;;;;;;;10.68;2.72;;;;;;;16.30;50.55;100981.84;5070742;28;20032;-81
2023/05/07 05:16:32;;;;;;;27.77;4.57;;;;;;;16.38;50.40;100976.53;5069142;28;20066;-79
2023/05/07 05:18:58;;;;;;;11.48;2.83;;;;;;;16.36;50.80;100974.97;5070681;28;20505;-80
2023/05/07 05:21:24;;;;;;;11.80;3.47;;;;;;;16.49;50.30;100984.44;5070885;28;20471;-82
2023/05/07 05:23:49;;;;;;;11.55;4.13;;;;;;;16.60;50.42;100989.69;5070531;28;20020;-80
2023/05/07 05:26:15;;;;;;;18.92;3.85;;;;;;;16.67;49.93;100981.75;5070388;28;20119;-78
2023/05/07 05:28:40;;;;;;;19.05;3.22;;;;;;;16.71;50.06;100984.03;5070671;28;20035;-82
2023/05/07 05:31:06;;;;;;;13.13;3.70;;;;;;;16.69;49.46;100966.19;5071676;28;20025;-80
2023/05/07 05:33:31;;;;;;;9.70;3.45;;;;;;;16.85;49.65;100982.59;5071132;28;20043;-80
2023/05/07 05:35:57;;;;;;;17.83;4.68;;;;;;;16.97;49.56;100978.63;5072120;28;20043;-82
2023/05/07 05:38:22;;;;;;;27.17;4.85;;;;;;;17.04;48.95;100968.84;5080648;28;20040;-82
2023/05/07 05:40:47;;;;;;;10.07;3.25;;;;;;;17.21;48.25;100978.84;5076980;28;20024;-79
2023/05/07 05:43:14;;;;;;;17.55;4.18;;;;;;;17.29;47.36;100988.91;5070028;28;20396;-86
2023/05/07 05:45:40;;;;;;;13.35;2.90;;;;;;;17.28;47.54;100971.75;5068947;28;20064;-80
2023/05/07 05:48:06;;;;;;;17.75;3.42;;;;;;;17.43;47.00;101000.03;5069533;28;20052;-80
2023/05/07 05:50:31;;;;;;;15.23;3.30;;;;;;;17.38;47.13;100985.22;5068888;28;20489;-79
2023/05/07 05:52:57;;;;;;;20.17;5.13;;;;;;;17.57;47.07;101004.09;5069807;28;20115;-80
2023/05/07 05:55:23;;;;;;;19.70;3.55;;;;;;;17.54;46.55;101003.53;5069757;28;20033;-79
2023/05/07 05:57:49;;;;;;;10.30;4.15;;;;;;;17.56;46.42;101010.53;5070667;28;20104;-80
2023/05/07 06:00:16;;;;;;;9.38;3.22;;;;;;;17.58;46.92;100999.50;5069926;28;20036;-79
2023/05/07 06:02:42;;;;;;;15.85;3.40;;;;;;;17.78;46.59;101006.41;5069678;28;20472;-81
2023/05/07 06:05:08;;;;;;;14.68;4.25;;;;;;;17.92;46.63;101008.50;5069253;28;20028;-79
2023/05/07 06:07:34;;;;;;;12.25;3.58;;;;;;;18.12;45.71;101003.69;5069617;28;20038;-78
2023/05/07 06:10:00;;;;;;;17.42;5.30;;;;;;;18.17;45.33;101013.06;5069305;28;20479;-79
2023/05/07 06:12:26;;;;;;;7.93;3.28;;;;;;;18.22;45.47;101018.88;5067229;28;20101;-85
2023/05/07 06:14:52;;;;;;;14.73;3.67;;;;;;;18.18;44.36;101009.31;5068598;28;20457;-78
2023/05/07 06:17:17;;;;;;;15.07;3.72;;;;;;;18.17;45.13;101012.19;5068788;28;20449;-79
2023/05/07 06:19:43;;;;;;;33.13;11.20;;;;;;;18.28;44.83;101004.59;5068542;28;20040;-81
2023/05/07 06:22:09;;;;;;;36.95;14.13;;;;;;;18.40;44.75;101002.44;5069927;28;20116;-79
2023/05/07 06:24:34;;;;;;;10.68;2.90;;;;;;;18.57;43.82;101016.94;5069546;28;20036;-83
2023/05/07 06:26:59;;;;;;;8.98;3.40;;;;;;;18.54;43.74;101015.41;5069766;28;20028;-83
2023/05/07 06:29:30;;;;;;;15.82;3.20;;;;;;;18.57;43.45;101009.63;5071334;28;20035;-80
2023/05/07 06:31:55;;;;;;;7.40;3.15;;;;;;;18.60;43.39;101000.28;5069745;28;20040;-80
2023/05/07 06:34:21;;;;;;;24.10;7.00;;;;;;;18.44;43.98;100971.94;5076745;28;20041;-82
2023/05/07 06:36:46;;;;;;;16.60;7.68;;;;;;;18.84;43.96;101024.84;5073209;28;20048;-82
2023/05/07 06:39:12;;;;;;;17.90;6.28;;;;;;;18.86;43.25;101010.03;5070558;28;20716;-82
2023/05/07 06:41:37;;;;;;;11.32;4.93;;;;;;;18.74;43.41;100999.63;5068481;28;20036;-82
2023/05/07 06:44:03;;;;;;;16.52;5.93;;;;;;;18.70;43.55;101003.69;5067343;28;20031;-81
2023/05/07 06:46:29;;;;;;;15.00;5.97;;;;;;;18.79;43.43;100992.66;5068476;28;20081;-82
2023/05/07 06:48:54;;;;;;;18.63;6.18;;;;;;;18.99;43.13;101020.41;5068376;28;20033;-78
2023/05/07 06:51:20;;;;;;;30.95;6.55;;;;;;;18.98;43.60;101014.13;5082269;28;20175;-77
2023/05/07 06:53:45;;;;;;;27.58;6.72;;;;;;;18.75;43.34;100984.97;5067164;28;20032;-77
2023/05/07 06:56:11;;;;;;;9.90;3.22;;;;;;;18.98;43.24;101013.28;5068472;28;20032;-77
2023/05/07 06:58:37;;;;;;;5.85;3.22;;;;;;;19.12;43.13;101011.72;5067524;28;20471;-79
2023/05/07 07:01:02;;;;;;;13.00;3.20;;;;;;;19.13;42.79;101002.53;5069476;28;20414;-76
2023/05/07 07:03:28;;;;;;;7.82;2.72;;;;;;;19.28;42.35;101009.00;5072671;28;20029;-84
2023/05/07 07:05:54;;;;;;;11.13;3.97;;;;;;;19.34;42.61;101001.00;5073815;28;20501;-80
2023/05/07 07:08:21;;;;;;;13.55;3.72;;;;;;;19.43;42.82;101018.22;5073003;28;20035;-81
2023/05/07 07:10:47;;;;;;;12.60;3.38;;;;;;;19.51;42.93;101002.69;5071002;28;20054;-79
2023/05/07 07:13:12;;;;;;;12.85;2.92;;;;;;;19.76;42.17;101021.75;5072476;28;20076;-80
2023/05/07 07:15:38;;;;;;;10.55;3.75;;;;;;;19.88;41.57;101020.34;5072768;28;20063;-82
2023/05/07 07:18:04;;;;;;;21.35;4.07;;;;;;;19.82;41.83;100991.00;5072702;28;20024;-80
2023/05/07 07:20:29;;;;;;;14.05;3.75;;;;;;;19.95;41.89;101010.44;5071041;28;20016;-81
2023/05/07 07:22:55;;;;;;;21.33;7.00;;;;;;;20.05;41.62;101014.66;5071317;28;20032;-81
2023/05/07 07:25:20;;;;;;;17.60;5.57;;;;;;;20.13;41.23;101027.44;5073425;28;20032;-82
2023/05/07 07:27:45;;;;;;;25.17;4.93;;;;;;;20.09;41.63;101020.59;5070731;28;20028;-78
2023/05/07 07:30:11;;;;;;;11.23;4.07;;;;;;;20.16;40.87;101018.88;5073624;28;20053;-80
2023/05/07 07:32:37;;;;;;;9.02;3.05;;;;;;;20.22;41.00;101020.91;5074570;28;20062;-81
2023/05/07 07:35:03;;;;;;;10.00;3.70;;;;;;;20.17;40.21;101028.78;5072735;28;20733;-78
2023/05/07 07:37:29;;;;;;;18.88;3.58;;;;;;;20.18;40.93;101027.75;5068404;28;20075;-77
2023/05/07 07:39:55;;;;;;;19.95;4.13;;;;;;;20.26;40.83;101022.28;5071334;28;20025;-78
2023/05/07 07:42:20;;;;;;;17.02;4.43;;;;;;;20.26;40.57;101016.81;5071234;28;20064;-81
2023/05/07 07:44:46;;;;;;;7.07;2.95;;;;;;;20.38;40.21;101009.06;5070971;28;20086;-79
2023/05/07 07:47:11;;;;;;;21.63;7.57;;;;;;;20.58;39.44;101021.25;5069976;28;20036;-79
2023/05/07 07:49:36;;;;;;;6.20;3.42;;;;;;;20.49;39.18;101020.44;5071484;28;20213;-78
2023/05/07 07:52:02;;;;;;;16.85;3.42;;;;;;;20.40;39.49;101018.78;5071046;28;20560;-79
2023/05/07 07:54:29;;;;;;;18.38;5.00;;;;;;;20.49;38.77;101045.03;5071246;28;20025;-78
2023/05/07 07:56:54;;;;;;;7.75;2.45;;;;;;;20.46;37.47;101045.41;5071627;28;20040;-79
2023/05/07 07:59:20;;;;;;;11.52;3.20;;;;;;;20.57;37.94;101036.81;5070715;28;20387;-79
2023/05/07 08:01:45;;;;;;;22.55;3.75;;;;;;;20.64;37.79;101032.31;5070984;28;20052;-80
2023/05/07 08:04:11;;;;;;;24.05;5.85;;;;;;;20.74;37.31;101029.34;5070571;28;20067;-80
2023/05/07 08:06:37;;;;;;;30.88;3.85;;;;;;;20.84;36.04;101048.25;5070943;28;20029;-80
2023/05/07 08:09:03;;;;;;;4.40;2.42;;;;;;;20.72;36.10;101033.31;5070624;28;20025;-78
2023/05/07 08:11:28;;;;;;;10.27;2.60;;;;;;;20.80;36.10;101047.75;5070569;28;20400;-79
2023/05/07 08:13:54;;;;;;;9.93;2.42;;;;;;;20.74;37.36;101040.28;5069819;28;20073;-78
2023/05/07 08:16:20;;;;;;;5.38;2.63;;;;;;;20.76;37.88;101031.91;5070765;28;20032;-78
2023/05/07 08:18:46;;;;;;;4.57;1.90;;;;;;;20.64;38.47;101018.66;5070017;28;20537;-78
2023/05/07 08:21:11;;;;;;;16.05;2.88;;;;;;;20.88;35.89;101039.53;5071406;28;20025;-78
2023/05/07 08:23:37;;;;;;;11.15;3.40;;;;;;;20.91;34.35;101027.38;5071401;28;20028;-78
2023/05/07 08:26:02;;;;;;;18.73;5.03;;;;;;;20.97;31.10;101026.63;5070688;28;20036;-79
2023/05/07 08:28:27;;;;;;;5.90;1.98;;;;;;;21.05;33.12;101019.22;5073028;28;20051;-79
2023/05/07 08:30:53;;;;;;;9.23;2.00;;;;;;;21.18;33.52;101029.59;5072291;28;20029;-79
2023/05/07 08:33:19;;;;;;;11.73;2.67;;;;;;;21.08;34.25;101015.25;5070698;28;20024;-76
2023/05/07 08:35:44;;;;;;;10.20;2.30;;;;;;;21.07;35.08;101010.81;5071387;28;20125;-80
2023/05/07 08:38:10;;;;;;;177.43;20.52;;;;;;;21.27;38.35;101020.28;5071354;28;20063;-81
2023/05/07 08:40:40;;;;;;;15.80;3.63;;;;;;;21.27;41.59;101011.22;5071394;28;20029;-82
2023/05/07 08:43:06;;;;;;;16.40;3.42;;;;;;;21.17;42.23;101027.88;5069950;28;20178;-81
2023/05/07 08:45:34;;;;;;;22.85;4.72;;;;;;;21.15;42.20;101005.34;5070350;28;20029;-81
2023/05/07 08:48:02;;;;;;;11.43;3.22;;;;;;;21.27;41.70;101031.22;5070446;28;20029;-79
2023/05/07 08:50:27;;;;;;;17.25;3.17;;;;;;;21.23;41.51;101021.66;5070590;28;20487;-82
2023/05/07 08:52:53;;;;;;;11.73;2.88;;;;;;;21.03;42.84;101014.97;5070353;28;20039;-81
2023/05/07 08:55:19;;;;;;;10.00;3.40;;;;;;;21.27;42.24;101011.22;5070491;28;20032;-79
2023/05/07 08:57:45;;;;;;;9.95;3.13;;;;;;;21.39;41.97;101013.31;5070184;28;20032;-84
2023/05/07 09:00:11;;;;;;;16.38;4.53;;;;;;;21.35;41.77;100992.81;5070117;28;21179;-82
2023/05/07 09:02:37;;;;;;;25.60;4.78;;;;;;;21.54;41.46;101025.16;5071403;28;20475;-77
2023/05/07 09:05:03;;;;;;;13.98;3.40;;;;;;;21.59;41.42;101019.09;5070136;28;20031;-81
2023/05/07 09:07:30;;;;;;;5.22;2.45;;;;;;;21.58;40.78;101015.53;5071152;28;20030;-78
2023/05/07 09:09:56;;;;;;;19.08;3.97;;;;;;;21.68;41.27;101009.75;5070699;28;20790;-77
2023/05/07 09:12:22;;;;;;;11.52;3.03;;;;;;;21.89;40.09;101014.53;5070665;28;20044;-77
2023/05/07 09:14:49;;;;;;;16.35;2.85;;;;;;;21.64;39.77;101008.44;5070139;28;20062;-78
2023/05/07 09:17:17;;;;;;;12.07;2.92;;;;;;;21.52;40.27;101012.69;5072021;28;20056;-76
2023/05/07 09:19:45;;;;;;;12.65;3.92;;;;;;;21.37;40.07;101012.66;5070847;28;20021;-77
2023/05/07 09:22:10;;;;;;;22.52;4.03;;;;;;;21.32;40.41;101004.13;5070364;28;20110;-76
2023/05/07 09:24:37;;;;;;;16.85;3.45;;;;;;;21.20;40.94;101007.50;5070227;28;20040;-78
2023/05/07 09:27:08;;;;;;;23.60;5.65;;;;;;;21.14;42.28;101004.47;5070250;28;20052;-77
2023/05/07 09:29:36;;;;;;;19.10;3.65;;;;;;;21.14;42.60;101000.88;5069619;28;20063;-79
2023/05/07 09:32:07;;;;;;;10.43;3.10;;;;;;;21.31;41.60;100996.13;5070169;28;20039;-77
2023/05/07 09:34:32;;;;;;;20.25;3.42;;;;;;;21.36;41.90;101010.94;5069186;28;20075;-80
2023/05/07 09:37:05;;;;;;;8.82;3.10;;;;;;;21.49;42.95;101000.22;5067470;28;20060;-77
2023/05/07 09:39:44;;;;;;;19.13;3.25;;;;;;;21.57;43.06;101005.59;5070302;28;20024;-82
2023/05/07 09:42:14;;;;;;;13.82;3.58;;;;;;;21.44;42.79;100990.84;5067335;28;20717;-78
2023/05/07 09:44:40;;;;;;;9.02;3.05;;;;;;;21.34;42.07;100979.34;5069276;28;20392;-81
2023/05/07 09:47:07;;;;;;;16.23;4.43;;;;;;;21.50;42.01;100996.44;5069001;28;20078;-80
2023/05/07 09:49:38;;;;;;;18.92;2.92;;;;;;;21.49;41.36;100982.94;5068928;28;20103;-80
2023/05/07 09:52:08;;;;;;;11.23;3.55;;;;;;;21.48;41.18;100992.19;5068984;28;20020;-78
2023/05/07 09:54:37;;;;;;;15.13;3.63;;;;;;;21.30;41.51;100962.44;5069202;28;20046;-77
2023/05/07 09:57:04;;;;;;;10.40;2.75;;;;;;;21.49;42.54;100988.44;5069206;28;20427;-78
2023/05/07 09:59:31;;;;;;;27.10;3.00;;;;;;;21.32;43.80;101004.13;5068642;28;20025;-80
2023/05/07 10:01:58;;;;;;;26.08;3.83;;;;;;;21.03;45.63;100983.00;5068541;28;20063;-77
2023/05/07 10:04:27;;;;;;;12.63;3.95;;;;;;;20.92;46.01;100986.16;5069135;28;20028;-77
2023/05/07 10:06:55;;;;;;;19.73;4.78;;;;;;;20.74;46.96;100992.97;5067709;28;20356;-78
2023/05/07 10:09:21;;;;;;;22.05;4.50;;;;;;;20.84;47.56;100994.44;5069027;28;20077;-79
2023/05/07 10:11:49;;;;;;;31.00;5.43;;;;;;;20.92;48.34;100991.63;5068867;28;20033;-77
2023/05/07 10:14:15;;;;;;;23.42;5.05;;;;;;;21.02;47.25;100992.25;5070458;28;20031;-78
2023/05/07 10:16:40;;;;;;;19.30;5.05;;;;;;;21.03;45.97;100998.56;5069377;28;20028;-77
2023/05/07 10:19:11;;;;;;;6.80;3.25;;;;;;;20.96;45.12;100992.97;5069316;28;20024;-80
2023/05/07 10:21:38;;;;;;;27.58;4.20;;;;;;;21.12;45.97;100998.34;5069619;28;20036;-76
2023/05/07 10:24:13;;;;;;;12.82;3.70;;;;;;;21.26;46.28;100987.59;5069157;28;20020;-81
2023/05/07 10:26:43;;;;;;;20.38;4.93;;;;;;;21.21;46.34;101001.84;5067059;28;20020;-79
2023/05/07 10:29:21;;;;;;;17.70;4.55;;;;;;;21.36;46.95;100999.16;5068204;28;20044;-80
2023/05/07 10:32:19;;;;;;;16.25;3.58;;;;;;;21.43;46.80;100998.25;5068800;28;20039;-82
2023/05/07 10:34:48;;;;;;;28.60;3.53;;;;;;;21.30;45.72;100969.78;5027385;28;20081;-83
2023/05/07 10:37:14;;;;;;;18.98;3.70;;;;;;;21.32;46.62;100982.25;5025847;28;20427;-79
2023/05/07 10:39:41;;;;;;;13.60;3.72;;;;;;;21.24;46.96;100976.00;5025864;28;20446;-81
2023/05/07 10:42:14;;;;;;;29.95;5.13;;;;;;;21.27;47.70;100984.69;5025190;28;20029;-82
2023/05/07 10:44:39;;;;;;;26.98;4.97;;;;;;;20.82;49.40;100974.63;5025459;28;20029;-78
2023/05/07 10:47:05;;;;;;;22.15;4.93;;;;;;;20.78;49.82;100988.84;5025200;28;20551;-80
2023/05/07 10:49:30;;;;;;;14.50;4.45;;;;;;;20.80;49.09;100989.50;5025777;28;20575;-81
2023/05/07 10:52:18;;;;;;;16.70;4.18;;;;;;;20.82;49.71;100971.91;5027657;28;20048;-82
2023/05/07 10:54:45;;;;;;;21.58;3.78;;;;;;;21.03;47.33;100969.34;5028209;28;20026;-83
2023/05/07 10:57:36;;;;;;;14.15;3.85;;;;;;;21.05;47.18;100994.59;5027343;28;20056;-81
2023/05/07 11:00:25;;;;;;;13.45;3.53;;;;;;;20.94;46.82;100986.00;4948218;29;20039;-81
2023/05/07 11:03:17;;;;;;;17.92;3.70;;;;;;;21.01;46.63;100992.41;4890706;29;20045;-82
2023/05/07 11:05:43;;;;;;;16.77;4.50;;;;;;;20.85;47.18;100967.94;4854144;29;20041;-81
2023/05/07 11:08:09;;;;;;;22.05;4.07;;;;;;;21.16;46.74;100987.84;4854939;29;20043;-80
2023/05/07 11:10:49;;;;;;;11.43;4.40;;;;;;;21.22;46.78;100995.38;4856762;29;20154;-80
2023/05/07 11:13:15;;;;;;;19.38;4.10;;;;;;;21.11;47.98;100987.56;4874472;29;20048;-80
2023/05/07 11:15:44;;;;;;;8.55;3.40;;;;;;;21.16;48.41;100998.81;4863061;29;20033;-83